Lena, Ohio
Current Conditions -  °F | °C
As of 1:15 PM on Tuesday 21 Oct 2014 (Local Time) from KEDJ Reporting Station
Overcast Overcast  
Wind Chill: 40°   Ceiling: 1300
Heat Index: 46°   Visibility: 4mi
Dew Point: 46°   Wind: 16mph
Humidity: 100%   Direction: 340°NNW
Pressure: 30.04"   Gusts: NA
Location:  40.1698°N, 84.0228°W
Report Text: KEDJ 211715Z AUTO 34014KT 4SM OVC013 08/08 A3004 RMK AO1
Loading
Personal Weather Stations






























Interactive Weather Map
Tropical Storm Tracking
New forecast layout! Learn more

10-Day Weather Forecast

Advertisements
Track Severe Weather on mobile